This is the latest recevied weather packets stored in our database for station/object F4JAB-11. If no packets are shown the sender has not sent any weather packets the latest 10 day(s).
| Time | Temp. | Humidity | Pressure | Rain* | Wind** | Luminosity | Snow |
|---|---|---|---|---|---|---|---|
| 1777525018 | 18.33° C | 31% | 1011.8 hPa | - | - | - | - |
| 1777510617 | 21.67° C | 31% | 1010.9 hPa | - | - | - | - |
| 1777504857 | 22.78° C | 31% | 1010.7 hPa | - | - | - | - |
| 1777501976 | 23.33° C | 31% | 1010.6 hPa | - | - | - | - |
| 1777497323 | 26.67° C | 29% | 1010 hPa | - | - | - | - |
| 1777494440 | 27.78° C | 28% | 1009.5 hPa | - | - | - | - |
| 1777485801 | 32.78° C | 26% | 1008.4 hPa | - | - | - | - |
| 1777480402 | 33.33° C | 25% | 1008.3 hPa | - | - | - | - |
| 1777404200 | 24.44° C | 24% | 1010.2 hPa | - | - | - | - |
| 1777375410 | 40° C | 17% | 1013.6 hPa | - | - | - | - |
| 1777367124 | 21.67° C | 27% | 1014.1 hPa | - | - | - | - |
| 1777364602 | 15.56° C | 28% | 1014.2 hPa | - | - | - | - |
| 1777350560 | 11.67° C | 27% | 1014.2 hPa | - | - | - | - |
| 1777330411 | 18.33° C | 25% | 1015.5 hPa | - | - | - | - |
| 1777327521 | 20° C | 25% | 1015.5 hPa | - | - | - | - |
| 1777300762 | 48.33° C | 17% | 1016.3 hPa | - | - | - | - |
| 1777297884 | 47.22° C | 18% | 1016.7 hPa | - | - | - | - |
| 1777289239 | 42.78° C | 20% | 1017.8 hPa | - | - | - | - |
| 1777271960 | 23.33° C | 32% | 1018 hPa | - | - | - | - |
| 1777264758 | 14.44° C | 28% | 1007.8 hPa | - | - | - | - |
| 1777261876 | 15° C | 26% | 1007.8 hPa | - | - | - | - |
| 1777258996 | 16.11° C | 25% | 1007.8 hPa | - | - | - | - |
| 1777255396 | 16.11° C | 25% | 1007.9 hPa | - | - | - | - |
| 1777251795 | 18.33° C | 24% | 1008.4 hPa | - | - | - | - |
| 1777248196 | 19.44° C | 24% | 1008.7 hPa | - | - | - | - |
* Rain since midnight (hover to see other rain measurements)
** Current wind speed in m/s (hover to see current wind gust speed)